M/V Oriole — WDE6982 — position and weather

sailwx.info

Track history (hours):
 
Tides and Currents Weather Stations Pressure Air Temp Water Temp Dewpoint Dewpoint Depression Visibility Wind Speed Wind Dir Waves Ship Positions

M/V Oriole

Owner: NATIVE SON INC., ST. THOMAS, VI. More information available from US FCC via Universal Licensing System and Coast Guard Vessel Documentation Center.

Last reported at 2016-Jun-02 21:29 UTC. Time now 2016-Jun-29 09:15 UTC.
Position N 18°23' W 064°38'.
Warning: this ship's position is 26 days out of date.

Length 25 m.

Type: Passenger vessel. MMSI: 366755670.

Date/timePositionNaut miles runAvg speedWind from/ knotsBaromVisibWave heightAir tempDewpointWater temp
2016-Jun-02 21:29N 18°23' W 064°38'9 9.2
2016-Jun-02 20:28N 18°20' W 064°48'4 3.9
2016-Jun-02 19:33N 18°23' W 064°45'5 2.2
2016-Jun-02 17:11N 18°20' W 064°50'812.0
2016-Jun-02 16:33N 18°23' W 064°43'6 1.9
2016-Jun-02 13:11N 18°20' W 064°48'710.5
2016-Jun-02 12:33N 18°23' W 064°42'6 6.1
2016-Jun-02 11:33N 18°20' W 064°48'7 6.7
2016-Jun-02 10:33N 18°23' W 064°41'3 0.2
2016-Jun-01 22:17N 18°23' W 064°39'10 5.8
2016-Jun-01 20:33N 18°20' W 064°48'7 6.2
2016-Jun-01 19:28N 18°23' W 064°42'0 0.0
2016-Jun-01 18:29N 18°23' W 064°42'8 1.8
2016-Jun-01 14:17N 18°20' W 064°49'2 2.6
2016-Jun-01 13:32N 18°21' W 064°48'6 5.2
2016-Jun-01 12:23N 18°23' W 064°42'8 9.8
2016-Jun-01 11:32N 18°20' W 064°50'8 8.2
2016-Jun-01 10:31N 18°23' W 064°42'3 0.3
2016-May-31 22:24N 18°23' W 064°39'9 4.9
2016-May-31 20:33N 18°20' W 064°48'3 1.5
2016-May-31 18:34N 18°22' W 064°46'4 0.9
2016-May-31 14:15N 18°20' W 064°49'2 3.5
2016-May-31 13:33N 18°22' W 064°47'5 4.8
2016-May-31 12:33N 18°23' W 064°42'6 6.1
2016-May-31 11:33N 18°20' W 064°48'6 0.4
2016-May-30 18:32N 18°23' W 064°42'7 1.8
2016-May-30 14:19N 18°20' W 064°49'11 0.7
2016-May-29 22:24N 18°24' W 064°38'10 5.2
2016-May-29 20:30N 18°20' W 064°48'4 4.0
2016-May-29 19:29N 18°23' W 064°45'4 2.1
2016-May-29 17:33N 18°20' W 064°48'1 0.3
2016-May-29 14:30N 18°20' W 064°49'10 8.3
2016-May-29 13:16N 18°23' W 064°39'9 0.5
2016-May-28 21:33N 18°21' W 064°47'5 1.7
2016-May-28 18:28N 18°23' W 064°42'7 1.7
2016-May-28 14:14N 18°20' W 064°49'10 0.5
2016-May-27 19:13N 18°23' W 064°39'1014.5
2016-May-27 18:33N 18°20' W 064°48'1 1.0
2016-May-27 17:16N 18°20' W 064°50'5 7.2
2016-May-27 16:33N 18°22' W 064°45'5 0.3
2016-May-26 20:18N 18°23' W 064°40'6 7.5
2016-May-26 19:33N 18°22' W 064°45'4 2.0
2016-May-26 17:20N 18°20' W 064°49'7 9.3
2016-May-26 16:33N 18°23' W 064°42'8 2.5
2016-May-26 13:27N 18°20' W 064°50'8 8.4
2016-May-26 12:31N 18°23' W 064°42'6 6.2
2016-May-26 11:33N 18°20' W 064°48'6 6.1
2016-May-26 10:33N 18°23' W 064°42'3 0.3
2016-May-25 22:16N 18°23' W 064°39'9 5.1
2016-May-25 20:28N 18°20' W 064°48'4 4.6
2016-May-25 19:33N 18°23' W 064°44'1 0.3
2016-May-25 16:32N 18°23' W 064°43'7 2.1
2016-May-25 13:11N 18°20' W 064°50'811.1
2016-May-25 12:26N 18°23' W 064°42'7 7.4
2016-May-25 11:33N 18°20' W 064°48'7 6.5
2016-May-25 10:33N 18°23' W 064°42'2 0.1
2016-May-24 21:33N 18°23' W 064°44'5 4.4
2016-May-24 20:29N 18°20' W 064°48'3 3.7
2016-May-24 19:32N 18°23' W 064°45'3 0.9
2016-May-24 16:31N 18°23' W 064°42'8 2.5
2016-May-24 13:22N 18°20' W 064°50'8 9.9
2016-May-24 12:32N 18°23' W 064°42'6 6.3
2016-May-24 11:34N 18°20' W 064°48'8 0.6
2016-May-23 22:15N 18°23' W 064°39'  
Track history (hours):
 
Tides and Currents Weather Stations Pressure Air Temp Water Temp Dewpoint Dewpoint Depression Visibility Wind Speed Wind Dir Waves Ship Positions

M/V Oriole

Owner: NATIVE SON INC., ST. THOMAS, VI. More information available from US FCC via Universal Licensing System and Coast Guard Vessel Documentation Center.

Last reported at 2016-Jun-02 21:29 UTC. Time now 2016-Jun-29 09:15 UTC.
Position N 18°23' W 064°38'.
Warning: this ship's position is 26 days out of date.

Length 25 m.

Type: Passenger vessel. MMSI: 366755670.

Date/timePositionNaut miles runAvg speedWind from/ knotsBaromVisibWave heightAir tempDewpointWater temp
2016-Jun-02 21:29N 18°23' W 064°38'9 9.2
2016-Jun-02 20:28N 18°20' W 064°48'4 3.9
2016-Jun-02 19:33N 18°23' W 064°45'5 2.2
2016-Jun-02 17:11N 18°20' W 064°50'812.0
2016-Jun-02 16:33N 18°23' W 064°43'6 1.9
2016-Jun-02 13:11N 18°20' W 064°48'710.5
2016-Jun-02 12:33N 18°23' W 064°42'6 6.1
2016-Jun-02 11:33N 18°20' W 064°48'7 6.7
2016-Jun-02 10:33N 18°23' W 064°41'3 0.2
2016-Jun-01 22:17N 18°23' W 064°39'10 5.8
2016-Jun-01 20:33N 18°20' W 064°48'7 6.2
2016-Jun-01 19:28N 18°23' W 064°42'0 0.0
2016-Jun-01 18:29N 18°23' W 064°42'8 1.8
2016-Jun-01 14:17N 18°20' W 064°49'2 2.6
2016-Jun-01 13:32N 18°21' W 064°48'6 5.2
2016-Jun-01 12:23N 18°23' W 064°42'8 9.8
2016-Jun-01 11:32N 18°20' W 064°50'8 8.2
2016-Jun-01 10:31N 18°23' W 064°42'3 0.3
2016-May-31 22:24N 18°23' W 064°39'9 4.9
2016-May-31 20:33N 18°20' W 064°48'3 1.5
2016-May-31 18:34N 18°22' W 064°46'4 0.9
2016-May-31 14:15N 18°20' W 064°49'2 3.5
2016-May-31 13:33N 18°22' W 064°47'5 4.8
2016-May-31 12:33N 18°23' W 064°42'6 6.1
2016-May-31 11:33N 18°20' W 064°48'6 0.4
2016-May-30 18:32N 18°23' W 064°42'7 1.8
2016-May-30 14:19N 18°20' W 064°49'11 0.7
2016-May-29 22:24N 18°24' W 064°38'10 5.2
2016-May-29 20:30N 18°20' W 064°48'4 4.0
2016-May-29 19:29N 18°23' W 064°45'4 2.1
2016-May-29 17:33N 18°20' W 064°48'1 0.3
2016-May-29 14:30N 18°20' W 064°49'10 8.3
2016-May-29 13:16N 18°23' W 064°39'9 0.5
2016-May-28 21:33N 18°21' W 064°47'5 1.7
2016-May-28 18:28N 18°23' W 064°42'7 1.7
2016-May-28 14:14N 18°20' W 064°49'10 0.5
2016-May-27 19:13N 18°23' W 064°39'1014.5
2016-May-27 18:33N 18°20' W 064°48'1 1.0
2016-May-27 17:16N 18°20' W 064°50'5 7.2
2016-May-27 16:33N 18°22' W 064°45'5 0.3
2016-May-26 20:18N 18°23' W 064°40'6 7.5
2016-May-26 19:33N 18°22' W 064°45'4 2.0
2016-May-26 17:20N 18°20' W 064°49'7 9.3
2016-May-26 16:33N 18°23' W 064°42'8 2.5
2016-May-26 13:27N 18°20' W 064°50'8 8.4
2016-May-26 12:31N 18°23' W 064°42'6 6.2
2016-May-26 11:33N 18°20' W 064°48'6 6.1
2016-May-26 10:33N 18°23' W 064°42'3 0.3
2016-May-25 22:16N 18°23' W 064°39'9 5.1
2016-May-25 20:28N 18°20' W 064°48'4 4.6
2016-May-25 19:33N 18°23' W 064°44'1 0.3
2016-May-25 16:32N 18°23' W 064°43'7 2.1
2016-May-25 13:11N 18°20' W 064°50'811.1
2016-May-25 12:26N 18°23' W 064°42'7 7.4
2016-May-25 11:33N 18°20' W 064°48'7 6.5
2016-May-25 10:33N 18°23' W 064°42'2 0.1
2016-May-24 21:33N 18°23' W 064°44'5 4.4
2016-May-24 20:29N 18°20' W 064°48'3 3.7
2016-May-24 19:32N 18°23' W 064°45'3 0.9
2016-May-24 16:31N 18°23' W 064°42'8 2.5
2016-May-24 13:22N 18°20' W 064°50'8 9.9
2016-May-24 12:32N 18°23' W 064°42'6 6.3
2016-May-24 11:34N 18°20' W 064°48'8 0.6
2016-May-23 22:15N 18°23' W 064°39'  

Dump ship's entire track history